createdAt,value
2022-11-01T00:00:30.673Z,24.70
2022-11-01T00:02:57.007Z,24.70
2022-11-01T00:05:23.346Z,24.70
2022-11-01T00:07:49.726Z,24.58
2022-11-01T00:12:42.414Z,24.69
2022-11-01T00:15:08.762Z,24.68
2022-11-01T00:17:35.105Z,24.68
2022-11-01T00:20:01.446Z,24.62
2022-11-01T00:22:27.769Z,24.51
2022-11-01T00:24:55.035Z,24.67
2022-11-01T00:27:20.452Z,24.67
2022-11-01T00:29:46.800Z,24.67
2022-11-01T00:32:13.137Z,24.65
2022-11-01T00:34:39.474Z,24.66
2022-11-01T00:37:05.844Z,24.56
2022-11-01T00:39:32.185Z,24.64
2022-11-01T00:41:58.524Z,24.64
2022-11-01T00:44:24.871Z,24.64
2022-11-01T00:46:51.205Z,24.63
2022-11-01T00:49:17.536Z,24.63
2022-11-01T00:51:43.875Z,24.63
2022-11-01T00:54:10.223Z,24.61
2022-11-01T00:56:36.563Z,24.63
2022-11-01T00:59:02.915Z,24.62
2022-11-01T01:01:29.361Z,24.62
2022-11-01T01:03:55.593Z,24.46
2022-11-01T01:06:21.922Z,24.55
2022-11-01T01:08:48.258Z,24.61
2022-11-01T01:11:14.597Z,24.46
2022-11-01T01:13:40.934Z,24.59
2022-11-01T01:16:07.265Z,24.59
2022-11-01T01:18:33.610Z,24.59
2022-11-01T01:20:59.938Z,24.59
2022-11-01T01:23:26.274Z,24.59
2022-11-01T01:25:52.612Z,24.59
2022-11-01T01:28:18.952Z,24.50
2022-11-01T01:30:45.284Z,24.50
2022-11-01T01:35:37.975Z,24.58
2022-11-01T01:38:04.619Z,24.50
2022-11-01T01:40:30.637Z,24.57
2022-11-01T01:42:56.977Z,24.57
2022-11-01T01:45:23.340Z,24.55
2022-11-01T01:47:49.760Z,24.55
2022-11-01T01:50:16.085Z,24.56
2022-11-01T01:52:42.420Z,24.55
2022-11-01T01:55:08.756Z,24.43
2022-11-01T01:57:35.099Z,24.55
2022-11-01T02:00:01.443Z,24.55
2022-11-01T02:02:27.799Z,24.55
2022-11-01T02:04:54.141Z,24.55
2022-11-01T02:07:20.479Z,24.54
2022-11-01T02:09:46.826Z,24.54
2022-11-01T02:12:13.161Z,24.53
2022-11-01T02:14:39.500Z,24.53
2022-11-01T02:17:08.633Z,24.47
2022-11-01T02:19:32.189Z,24.52
2022-11-01T02:21:58.534Z,24.51
2022-11-01T02:24:24.870Z,24.51
2022-11-01T02:26:51.209Z,24.52
2022-11-01T02:29:17.580Z,24.50
2022-11-01T02:31:43.982Z,24.49
2022-11-01T02:34:10.346Z,24.50
2022-11-01T02:36:36.685Z,24.49
2022-11-01T02:39:03.067Z,24.50
2022-11-01T02:41:29.356Z,24.50
2022-11-01T02:43:55.776Z,24.49
2022-11-01T02:46:22.140Z,24.48
2022-11-01T02:48:48.468Z,24.40
2022-11-01T02:51:14.818Z,24.49
2022-11-01T02:53:41.151Z,24.48
2022-11-01T02:56:07.489Z,24.49
2022-11-01T02:58:33.823Z,24.49
2022-11-01T03:01:00.273Z,24.49
2022-11-01T03:03:26.523Z,24.46
2022-11-01T03:05:52.892Z,24.46
2022-11-01T03:08:19.229Z,24.44
2022-11-01T03:10:45.620Z,24.38
2022-11-01T03:13:11.951Z,24.45
2022-11-01T03:15:38.294Z,24.45
2022-11-01T03:18:04.627Z,24.42
2022-11-01T03:20:30.976Z,24.42
2022-11-01T03:22:57.331Z,24.36
2022-11-01T03:25:23.677Z,24.36
2022-11-01T03:27:50.019Z,24.43
2022-11-01T03:30:16.356Z,24.41
2022-11-01T03:32:42.695Z,24.34
2022-11-01T03:35:09.029Z,24.34
2022-11-01T03:37:35.381Z,24.40
2022-11-01T03:40:01.781Z,24.40
2022-11-01T03:42:28.117Z,24.39
2022-11-01T03:44:54.465Z,24.38
2022-11-01T03:47:20.791Z,24.39
2022-11-01T03:49:47.149Z,24.33
2022-11-01T03:52:13.469Z,24.23
2022-11-01T03:54:39.810Z,24.37
2022-11-01T03:57:06.146Z,24.37
2022-11-01T03:59:32.483Z,24.28
2022-11-01T04:01:58.924Z,24.28
2022-11-01T04:04:25.165Z,24.36
2022-11-01T04:06:51.523Z,24.35
2022-11-01T04:09:17.870Z,24.34
2022-11-01T04:11:44.233Z,24.34
2022-11-01T04:14:10.578Z,24.35
2022-11-01T04:16:36.912Z,24.33
2022-11-01T04:19:03.268Z,24.34
2022-11-01T04:21:29.598Z,24.33
2022-11-01T04:23:55.954Z,24.32
2022-11-01T04:26:22.287Z,24.31
2022-11-01T04:28:48.667Z,24.31
2022-11-01T04:31:15.008Z,24.30
2022-11-01T04:33:41.394Z,24.30
2022-11-01T04:36:07.725Z,24.32
2022-11-01T04:38:34.060Z,24.31
2022-11-01T04:41:00.396Z,24.25
2022-11-01T04:43:26.740Z,24.29
2022-11-01T04:45:53.084Z,24.29
2022-11-01T04:48:19.424Z,24.30
2022-11-01T04:50:45.756Z,24.30
2022-11-01T04:53:12.101Z,24.30
2022-11-01T04:55:38.430Z,24.30
2022-11-01T04:58:04.792Z,24.30
2022-11-01T05:00:31.123Z,24.31
2022-11-01T05:02:57.471Z,24.31
2022-11-01T05:05:23.854Z,24.31
2022-11-01T05:07:50.242Z,24.31
2022-11-01T05:10:16.539Z,24.29
2022-11-01T05:12:42.883Z,24.28
2022-11-01T05:15:09.229Z,24.30
2022-11-01T05:17:35.578Z,24.30
2022-11-01T05:20:01.922Z,24.31
2022-11-01T05:22:28.257Z,24.31
2022-11-01T05:24:54.592Z,24.31
2022-11-01T05:27:20.936Z,24.31
2022-11-01T05:29:47.267Z,24.30
2022-11-01T05:32:13.630Z,24.30
2022-11-01T05:34:39.960Z,24.30
2022-11-01T05:37:06.312Z,24.24
2022-11-01T05:39:32.709Z,24.28
2022-11-01T05:42:01.820Z,24.28
2022-11-01T05:44:25.387Z,24.29
2022-11-01T05:46:52.687Z,24.30
2022-11-01T05:49:18.072Z,24.30
2022-11-01T05:51:44.417Z,24.30
2022-11-01T05:54:10.746Z,24.30
2022-11-01T05:56:39.030Z,24.32
2022-11-01T05:59:03.425Z,24.33
2022-11-01T06:01:29.861Z,24.32
2022-11-01T06:03:56.182Z,24.32
2022-11-01T06:06:22.529Z,24.36
2022-11-01T06:08:48.861Z,24.35
2022-11-01T06:11:15.204Z,24.34
2022-11-01T06:13:42.564Z,24.32
2022-11-01T06:16:08.932Z,24.36
2022-11-01T06:18:35.271Z,24.33
2022-11-01T06:21:01.621Z,24.36
2022-11-01T06:23:27.973Z,24.38
2022-11-01T06:25:54.381Z,24.16
2022-11-01T06:28:20.719Z,24.37
2022-11-01T06:30:47.061Z,24.39
2022-11-01T06:33:13.407Z,24.37
2022-11-01T06:35:39.757Z,24.38
2022-11-01T06:38:06.165Z,24.40
2022-11-01T06:40:32.503Z,24.31
2022-11-01T06:42:58.882Z,24.31
2022-11-01T06:45:25.187Z,24.40
2022-11-01T06:47:51.549Z,24.40
2022-11-01T06:50:17.894Z,24.39
2022-11-01T06:52:44.235Z,24.40
2022-11-01T06:55:10.584Z,24.41
2022-11-01T06:57:36.923Z,24.41
2022-11-01T07:00:03.319Z,24.41
2022-11-01T07:02:30.203Z,24.41
2022-11-01T07:07:41.309Z,24.42
2022-11-01T07:10:07.642Z,24.45
2022-11-01T07:12:33.987Z,24.45
2022-11-01T07:15:00.338Z,24.44
2022-11-01T07:17:26.685Z,24.44
2022-11-01T07:19:53.035Z,24.44
2022-11-01T07:22:20.346Z,24.46
2022-11-01T07:24:45.716Z,24.50
2022-11-01T07:27:14.323Z,24.54
2022-11-01T07:29:38.495Z,24.59
2022-11-01T07:32:04.839Z,24.54
2022-11-01T07:34:31.186Z,24.54
2022-11-01T07:36:57.536Z,24.58
2022-11-01T07:39:23.884Z,24.60
2022-11-01T07:41:50.408Z,24.61
2022-11-01T07:44:16.766Z,24.61
2022-11-01T07:46:43.130Z,24.62
2022-11-01T07:49:09.481Z,24.62
2022-11-01T07:51:35.830Z,24.62
2022-11-01T07:54:02.191Z,24.63
2022-11-01T07:56:28.547Z,24.66
2022-11-01T07:58:54.887Z,24.64
2022-11-01T08:01:21.347Z,24.68
2022-11-01T08:03:47.585Z,24.68
2022-11-01T08:06:13.997Z,24.67
2022-11-01T08:08:40.300Z,24.69
2022-11-01T08:11:06.655Z,24.70
2022-11-01T08:13:33.022Z,24.68
2022-11-01T08:15:59.364Z,24.71
2022-11-01T08:18:25.704Z,24.76
2022-11-01T08:20:52.046Z,24.76
2022-11-01T08:23:18.392Z,24.68
2022-11-01T08:25:44.761Z,24.77
2022-11-01T08:28:11.105Z,24.82
2022-11-01T08:30:37.468Z,24.79
2022-11-01T08:33:04.134Z,24.81
2022-11-01T08:35:30.567Z,24.81
2022-11-01T08:37:56.900Z,24.81
2022-11-01T08:40:23.248Z,24.86
2022-11-01T08:42:49.587Z,24.86
2022-11-01T08:45:15.932Z,24.89
2022-11-01T08:47:42.272Z,24.89
2022-11-01T08:50:11.036Z,24.87
2022-11-01T08:52:34.987Z,24.90
2022-11-01T08:55:01.327Z,24.99
2022-11-01T08:57:27.675Z,24.99
2022-11-01T08:59:54.017Z,24.97
2022-11-01T09:02:23.094Z,24.97
2022-11-01T09:04:49.393Z,24.86
2022-11-01T09:07:15.750Z,25.01
2022-11-01T09:09:42.112Z,25.03
2022-11-01T09:12:12.352Z,25.03
2022-11-01T09:14:34.851Z,25.03
2022-11-01T09:17:01.204Z,25.05
2022-11-01T09:19:27.582Z,25.05
2022-11-01T09:21:53.918Z,25.06
2022-11-01T09:24:20.261Z,25.12
2022-11-01T09:26:46.594Z,25.12
2022-11-01T09:29:12.939Z,25.15
2022-11-01T09:31:39.380Z,25.15
2022-11-01T09:34:05.723Z,25.14
2022-11-01T09:36:32.056Z,25.17
2022-11-01T09:38:58.410Z,25.20
2022-11-01T09:41:24.751Z,25.22
2022-11-01T09:43:51.086Z,25.22
2022-11-01T09:46:17.468Z,25.23
2022-11-01T09:48:43.768Z,25.25
2022-11-01T09:51:10.121Z,25.25
2022-11-01T09:53:36.507Z,25.30
2022-11-01T09:56:02.807Z,25.30
2022-11-01T09:58:29.138Z,25.37
2022-11-01T10:00:55.528Z,25.37
2022-11-01T10:03:21.831Z,25.41
2022-11-01T10:05:48.177Z,25.40
2022-11-01T10:08:14.610Z,25.42
2022-11-01T10:10:40.947Z,25.45
2022-11-01T10:13:07.331Z,25.42
2022-11-01T10:15:33.654Z,25.45
2022-11-01T10:18:01.208Z,25.43
2022-11-01T10:20:26.326Z,25.39
2022-11-01T10:22:52.672Z,25.49
2022-11-01T10:25:18.996Z,25.49
2022-11-01T10:27:45.343Z,25.45
2022-11-01T10:30:11.706Z,25.43
2022-11-01T10:32:38.029Z,25.40
2022-11-01T10:35:04.369Z,25.30
2022-11-01T10:37:30.758Z,25.30
2022-11-01T10:40:00.084Z,25.38
2022-11-01T10:42:23.479Z,25.42
2022-11-01T10:44:49.855Z,25.40
2022-11-01T10:47:16.269Z,25.40
2022-11-01T10:52:08.993Z,25.42
2022-11-01T10:54:35.332Z,25.42
2022-11-01T10:57:01.672Z,25.40
2022-11-01T10:59:28.030Z,25.40
2022-11-01T11:01:54.543Z,25.48
2022-11-01T11:04:20.712Z,25.48
2022-11-01T11:06:47.058Z,25.25
2022-11-01T11:09:13.378Z,25.44
2022-11-01T11:11:39.743Z,25.55
2022-11-01T11:14:06.075Z,25.55
2022-11-01T11:16:32.422Z,25.60
2022-11-01T11:18:58.772Z,25.60
2022-11-01T11:21:28.032Z,25.59
2022-11-01T11:23:51.453Z,25.59
2022-11-01T11:26:17.814Z,25.61
2022-11-01T11:28:44.134Z,25.63
2022-11-01T11:31:10.501Z,25.61
2022-11-01T11:33:36.825Z,25.62
2022-11-01T11:36:03.173Z,25.62
2022-11-01T11:38:29.505Z,25.56
2022-11-01T11:40:55.854Z,25.56
2022-11-01T11:43:22.279Z,25.61
2022-11-01T11:45:48.618Z,25.47
2022-11-01T11:48:14.989Z,25.63
2022-11-01T11:50:41.333Z,25.53
2022-11-01T11:53:07.685Z,25.65
2022-11-01T11:55:34.025Z,25.54
2022-11-01T11:58:00.795Z,25.65
2022-11-01T12:00:26.709Z,25.66
2022-11-01T12:02:53.181Z,25.55
2022-11-01T12:05:19.466Z,25.65
2022-11-01T12:07:45.804Z,25.65
2022-11-01T12:10:12.149Z,25.68
2022-11-01T12:12:38.517Z,25.69
2022-11-01T12:15:04.861Z,25.70
2022-11-01T12:17:31.201Z,25.64
2022-11-01T12:19:57.541Z,25.68
2022-11-01T12:22:23.889Z,25.63
2022-11-01T12:24:50.243Z,25.70
2022-11-01T12:27:16.574Z,25.70
2022-11-01T12:29:42.922Z,25.72
2022-11-01T12:32:09.280Z,25.73
2022-11-01T12:34:38.327Z,25.72
2022-11-01T12:37:01.996Z,25.70
2022-11-01T12:39:28.383Z,25.70
2022-11-01T12:41:54.720Z,25.64
2022-11-01T12:44:21.071Z,25.73
2022-11-01T12:46:47.405Z,25.73
2022-11-01T12:49:13.751Z,25.66
2022-11-01T12:51:40.111Z,25.75
2022-11-01T12:54:06.451Z,25.75
2022-11-01T12:56:32.795Z,25.76
2022-11-01T12:58:59.180Z,25.76
2022-11-01T13:01:25.567Z,25.77
2022-11-01T13:03:51.927Z,25.78
2022-11-01T13:06:18.300Z,25.78
2022-11-01T13:08:44.665Z,25.70
2022-11-01T13:11:10.994Z,25.69
2022-11-01T13:13:37.333Z,25.69
2022-11-01T13:16:03.679Z,25.63
2022-11-01T13:18:30.039Z,25.69
2022-11-01T13:20:56.376Z,25.66
2022-11-01T13:23:22.728Z,25.65
2022-11-01T13:25:49.071Z,25.64
2022-11-01T13:28:15.445Z,25.65
2022-11-01T13:30:41.783Z,25.64
2022-11-01T13:33:08.126Z,25.60
2022-11-01T13:35:34.463Z,25.58
2022-11-01T13:38:00.807Z,25.55
2022-11-01T13:40:28.263Z,25.57
2022-11-01T13:42:53.526Z,25.51
2022-11-01T13:45:19.876Z,25.47
2022-11-01T13:50:12.572Z,25.54
2022-11-01T13:52:38.920Z,25.54
2022-11-01T13:55:05.307Z,25.55
2022-11-01T13:57:31.645Z,25.56
2022-11-01T13:59:57.987Z,25.54
2022-11-01T14:02:24.741Z,25.57
2022-11-01T14:04:50.688Z,25.60
2022-11-01T14:07:17.033Z,25.67
2022-11-01T14:09:43.367Z,25.64
2022-11-01T14:12:09.704Z,25.61
2022-11-01T14:14:36.050Z,25.60
2022-11-01T14:17:02.389Z,25.71
2022-11-01T14:19:28.730Z,25.68
2022-11-01T14:21:55.071Z,25.69
2022-11-01T14:24:21.414Z,25.64
2022-11-01T14:26:47.772Z,25.54
2022-11-01T14:29:14.109Z,25.66
2022-11-01T14:31:40.453Z,25.70
2022-11-01T14:34:06.819Z,25.65
2022-11-01T14:36:33.155Z,25.64
2022-11-01T14:38:59.488Z,25.65
2022-11-01T14:41:25.829Z,25.70
2022-11-01T14:43:52.236Z,25.69
2022-11-01T14:46:18.499Z,25.68
2022-11-01T14:48:44.838Z,25.60
2022-11-01T14:51:11.177Z,25.58
2022-11-01T14:53:37.526Z,25.56
2022-11-01T14:56:03.849Z,25.59
2022-11-01T14:58:30.201Z,25.59
2022-11-01T15:00:56.660Z,25.51
2022-11-01T15:03:22.886Z,25.59
2022-11-01T15:05:49.229Z,25.58
2022-11-01T15:08:15.581Z,25.59
2022-11-01T15:10:41.939Z,25.54
2022-11-01T15:13:09.606Z,25.64
2022-11-01T15:15:34.620Z,25.64
2022-11-01T15:18:01.522Z,25.46
2022-11-01T15:20:27.315Z,25.55
2022-11-01T15:22:54.717Z,25.56
2022-11-01T15:25:20.049Z,25.55
2022-11-01T15:27:46.378Z,25.52
2022-11-01T15:30:12.749Z,25.56
2022-11-01T15:32:39.094Z,25.51
2022-11-01T15:35:05.439Z,25.51
2022-11-01T15:37:31.831Z,25.52
2022-11-01T15:42:24.603Z,25.49
2022-11-01T15:44:50.938Z,25.48
2022-11-01T15:47:17.279Z,25.46
2022-11-01T15:49:43.635Z,25.47
2022-11-01T15:52:09.973Z,25.47
2022-11-01T15:54:36.305Z,25.40
2022-11-01T15:57:02.645Z,25.52
2022-11-01T15:59:28.988Z,25.52
2022-11-01T16:01:56.609Z,25.38
2022-11-01T16:04:21.703Z,25.38
2022-11-01T16:06:48.043Z,25.45
2022-11-01T16:09:14.383Z,25.49
2022-11-01T16:11:40.718Z,25.53
2022-11-01T16:14:07.057Z,25.53
2022-11-01T16:16:33.402Z,25.51
2022-11-01T16:18:59.740Z,25.55
2022-11-01T16:21:26.086Z,25.55
2022-11-01T16:23:52.425Z,25.54
2022-11-01T16:26:18.769Z,25.41
2022-11-01T16:28:45.117Z,25.52
2022-11-01T16:31:11.455Z,25.48
2022-11-01T16:33:37.800Z,25.47
2022-11-01T16:36:04.199Z,25.48
2022-11-01T16:38:30.514Z,25.49
2022-11-01T16:40:56.847Z,25.49
2022-11-01T16:43:23.187Z,25.47
2022-11-01T16:45:49.532Z,25.49
2022-11-01T16:48:15.876Z,25.49
2022-11-01T16:50:42.209Z,25.49
2022-11-01T16:53:08.547Z,25.47
2022-11-01T16:55:37.237Z,25.48
2022-11-01T16:58:01.338Z,25.40
2022-11-01T17:00:27.577Z,25.40
2022-11-01T17:02:53.916Z,25.49
2022-11-01T17:05:20.263Z,25.46
2022-11-01T17:07:46.598Z,25.51
2022-11-01T17:10:12.944Z,25.51
2022-11-01T17:12:39.389Z,25.40
2022-11-01T17:15:05.728Z,25.49
2022-11-01T17:17:32.133Z,25.47
2022-11-01T17:19:58.464Z,25.49
2022-11-01T17:22:25.777Z,25.48
2022-11-01T17:24:51.127Z,25.48
2022-11-01T17:27:17.465Z,25.46
2022-11-01T17:29:43.807Z,25.47
2022-11-01T17:32:10.145Z,25.49
2022-11-01T17:34:36.498Z,25.45
2022-11-01T17:37:02.817Z,25.43
2022-11-01T17:39:29.162Z,25.31
2022-11-01T17:41:55.499Z,25.35
2022-11-01T17:44:21.838Z,25.41
2022-11-01T17:46:48.181Z,25.39
2022-11-01T17:49:14.572Z,25.41
2022-11-01T17:51:40.898Z,25.39
2022-11-01T17:54:07.266Z,25.38
2022-11-01T17:56:33.605Z,25.39
2022-11-01T17:58:59.933Z,25.37
2022-11-01T18:01:26.451Z,25.37
2022-11-01T18:03:52.683Z,25.35
2022-11-01T18:06:19.024Z,25.33
2022-11-01T18:08:45.363Z,25.32
2022-11-01T18:11:11.708Z,25.32
2022-11-01T18:13:38.038Z,25.25
2022-11-01T18:16:04.428Z,25.33
2022-11-01T18:18:30.770Z,25.31
2022-11-01T18:20:57.111Z,25.22
2022-11-01T18:23:23.453Z,25.30
2022-11-01T18:25:49.790Z,25.28
2022-11-01T18:28:16.132Z,25.28
2022-11-01T18:30:42.466Z,25.14
2022-11-01T18:33:08.814Z,25.28
2022-11-01T18:35:35.141Z,25.27
2022-11-01T18:38:01.755Z,25.27
2022-11-01T18:40:27.817Z,25.27
2022-11-01T18:42:54.160Z,25.25
2022-11-01T18:45:23.219Z,25.14
2022-11-01T18:47:46.869Z,25.16
2022-11-01T18:50:16.310Z,25.16
2022-11-01T18:52:39.582Z,25.22
2022-11-01T18:55:05.917Z,25.16
2022-11-01T18:57:32.250Z,25.19
2022-11-01T18:59:58.598Z,25.21
2022-11-01T19:02:25.067Z,25.12
2022-11-01T19:04:51.273Z,25.18
2022-11-01T19:07:17.610Z,24.97
2022-11-01T19:09:44.004Z,25.03
2022-11-01T19:12:11.991Z,25.03
2022-11-01T19:14:36.652Z,25.06
2022-11-01T19:17:03.000Z,25.06
2022-11-01T19:19:29.330Z,25.09
2022-11-01T19:21:55.687Z,25.08
2022-11-01T19:24:22.029Z,25.08
2022-11-01T19:26:48.377Z,25.09
2022-11-01T19:29:14.797Z,25.05
2022-11-01T19:31:41.181Z,25.09
2022-11-01T19:34:07.509Z,25.06
2022-11-01T19:36:33.899Z,25.07
2022-11-01T19:39:00.219Z,25.08
2022-11-01T19:41:26.554Z,25.08
2022-11-01T19:43:52.887Z,25.06
2022-11-01T19:46:19.280Z,25.05
2022-11-01T19:48:45.583Z,25.05
2022-11-01T19:51:11.934Z,25.02
2022-11-01T19:53:38.266Z,25.02
2022-11-01T19:56:04.601Z,24.96
2022-11-01T19:58:30.952Z,24.90
2022-11-01T20:01:02.838Z,24.92
2022-11-01T20:03:23.636Z,24.99
2022-11-01T20:05:49.970Z,24.93
2022-11-01T20:08:16.308Z,24.93
2022-11-01T20:10:42.647Z,25.00
2022-11-01T20:13:08.987Z,24.99
2022-11-01T20:15:35.327Z,24.98
2022-11-01T20:18:03.812Z,24.94
2022-11-01T20:20:27.998Z,24.94
2022-11-01T20:23:06.170Z,24.88
2022-11-01T20:25:20.696Z,24.98
2022-11-01T20:27:48.230Z,24.98
2022-11-01T20:30:13.379Z,24.98
2022-11-01T20:32:39.719Z,24.90
2022-11-01T20:35:06.063Z,24.97
2022-11-01T20:37:32.409Z,24.98
2022-11-01T20:39:58.750Z,24.91
2022-11-01T20:42:25.081Z,24.89
2022-11-01T20:44:51.425Z,24.98
2022-11-01T20:47:17.757Z,24.99
2022-11-01T20:49:44.118Z,24.94
2022-11-01T20:54:36.804Z,24.98
2022-11-01T20:57:03.140Z,24.95
2022-11-01T20:59:29.487Z,24.95
2022-11-01T21:01:57.235Z,24.93
2022-11-01T21:04:22.178Z,24.94
2022-11-01T21:06:48.512Z,24.95
2022-11-01T21:09:14.856Z,24.95
2022-11-01T21:11:41.210Z,24.84
2022-11-01T21:14:07.553Z,24.84
2022-11-01T21:16:33.891Z,24.93
2022-11-01T21:19:00.251Z,24.91
2022-11-01T21:21:26.623Z,24.90
2022-11-01T21:23:52.951Z,24.90
2022-11-01T21:26:19.293Z,24.90
2022-11-01T21:28:45.704Z,24.90
2022-11-01T21:31:12.042Z,24.90
2022-11-01T21:33:38.392Z,24.90
2022-11-01T21:36:04.726Z,24.89
2022-11-01T21:38:31.070Z,24.90
2022-11-01T21:40:57.413Z,24.88
2022-11-01T21:43:23.763Z,24.88
2022-11-01T21:45:50.094Z,24.88
2022-11-01T21:48:16.441Z,24.89
2022-11-01T21:50:42.788Z,24.72
2022-11-01T21:53:09.124Z,24.86
2022-11-01T21:55:35.461Z,24.85
2022-11-01T21:58:01.811Z,24.85
2022-11-01T22:00:28.148Z,24.85
2022-11-01T22:02:54.521Z,24.85
2022-11-01T22:05:20.857Z,24.86
2022-11-01T22:07:47.191Z,24.84
2022-11-01T22:10:13.563Z,24.83
2022-11-01T22:12:39.913Z,24.84
2022-11-01T22:15:06.256Z,24.82
2022-11-01T22:17:32.601Z,24.83
2022-11-01T22:19:58.966Z,24.83
2022-11-01T22:22:25.310Z,24.81
2022-11-01T22:24:51.643Z,24.66
2022-11-01T22:27:17.983Z,24.66
2022-11-01T22:29:44.316Z,24.82
2022-11-01T22:32:10.657Z,24.78
2022-11-01T22:34:36.989Z,24.63
2022-11-01T22:37:03.329Z,24.78
2022-11-01T22:39:29.669Z,24.79
2022-11-01T22:41:56.016Z,24.79
2022-11-01T22:44:22.356Z,24.79
2022-11-01T22:46:53.610Z,24.77
2022-11-01T22:49:15.033Z,24.78
2022-11-01T22:51:41.428Z,24.77
2022-11-01T22:54:07.761Z,24.77
2022-11-01T22:56:34.101Z,24.77
2022-11-01T22:59:00.462Z,24.68
2022-11-01T23:01:29.222Z,24.74
2022-11-01T23:03:53.203Z,24.74
2022-11-01T23:06:19.549Z,24.74
2022-11-01T23:08:45.882Z,24.74
2022-11-01T23:11:12.219Z,24.74
2022-11-01T23:13:38.576Z,24.74
2022-11-01T23:16:04.917Z,24.67
2022-11-01T23:18:31.287Z,24.73
2022-11-01T23:20:57.624Z,24.73
2022-11-01T23:23:23.957Z,24.66
2022-11-01T23:25:50.293Z,24.71
2022-11-01T23:28:16.662Z,24.64
2022-11-01T23:30:43.011Z,24.64
2022-11-01T23:33:09.342Z,24.71
2022-11-01T23:35:35.683Z,24.71
2022-11-01T23:38:02.033Z,24.70
2022-11-01T23:40:28.369Z,24.55
2022-11-01T23:42:54.698Z,24.55
2022-11-01T23:45:21.038Z,24.70
2022-11-01T23:47:47.373Z,24.69
2022-11-01T23:50:13.730Z,24.69
2022-11-01T23:52:40.067Z,24.61
2022-11-01T23:55:06.480Z,24.61
2022-11-01T23:57:32.810Z,24.69
2022-11-01T23:59:59.154Z,24.68
